sensor_id;sensor_type;location;lat;lon;timestamp;P1;durP1;ratioP1;P2;durP2;ratioP2
63438;SDS011;49567;48.958;8.294;2022-07-18T00:02:04;1.45;;;0.90;;
63438;SDS011;49567;48.958;8.294;2022-07-18T00:04:30;1.60;;;1.17;;
63438;SDS011;49567;48.958;8.294;2022-07-18T00:06:55;1.90;;;1.20;;
63438;SDS011;49567;48.958;8.294;2022-07-18T00:09:22;4.30;;;1.33;;
63438;SDS011;49567;48.958;8.294;2022-07-18T00:11:48;2.25;;;1.10;;
63438;SDS011;49567;48.958;8.294;2022-07-18T00:14:15;2.40;;;1.33;;
63438;SDS011;49567;48.958;8.294;2022-07-18T00:16:42;3.25;;;1.10;;
63438;SDS011;49567;48.958;8.294;2022-07-18T00:19:10;2.38;;;1.05;;
63438;SDS011;49567;48.958;8.294;2022-07-18T00:21:35;1.20;;;1.10;;
63438;SDS011;49567;48.958;8.294;2022-07-18T00:24:02;3.77;;;1.30;;
63438;SDS011;49567;48.958;8.294;2022-07-18T00:26:28;4.22;;;1.10;;
63438;SDS011;49567;48.958;8.294;2022-07-18T00:28:54;1.48;;;1.08;;
63438;SDS011;49567;48.958;8.294;2022-07-18T00:31:21;1.13;;;1.02;;
63438;SDS011;49567;48.958;8.294;2022-07-18T00:33:47;2.17;;;1.00;;
63438;SDS011;49567;48.958;8.294;2022-07-18T00:36:14;1.50;;;1.13;;
63438;SDS011;49567;48.958;8.294;2022-07-18T00:38:40;1.52;;;0.80;;
63438;SDS011;49567;48.958;8.294;2022-07-18T00:41:06;1.13;;;1.07;;
63438;SDS011;49567;48.958;8.294;2022-07-18T00:43:33;4.07;;;1.02;;
63438;SDS011;49567;48.958;8.294;2022-07-18T00:45:59;1.00;;;1.00;;
63438;SDS011;49567;48.958;8.294;2022-07-18T00:48:26;1.90;;;1.00;;
63438;SDS011;49567;48.958;8.294;2022-07-18T00:50:52;1.67;;;1.00;;
63438;SDS011;49567;48.958;8.294;2022-07-18T00:53:18;2.43;;;1.17;;
63438;SDS011;49567;48.958;8.294;2022-07-18T00:55:44;1.45;;;1.20;;
63438;SDS011;49567;48.958;8.294;2022-07-18T00:58:12;2.00;;;1.10;;
63438;SDS011;49567;48.958;8.294;2022-07-18T01:00:39;1.05;;;1.00;;
63438;SDS011;49567;48.958;8.294;2022-07-18T01:03:24;1.43;;;0.83;;
63438;SDS011;49567;48.958;8.294;2022-07-18T01:05:51;1.38;;;1.10;;
63438;SDS011;49567;48.958;8.294;2022-07-18T01:08:17;1.43;;;1.30;;
63438;SDS011;49567;48.958;8.294;2022-07-18T01:10:43;1.27;;;1.20;;
63438;SDS011;49567;48.958;8.294;2022-07-18T01:13:10;1.80;;;1.30;;
63438;SDS011;49567;48.958;8.294;2022-07-18T01:15:38;0.88;;;0.88;;
63438;SDS011;49567;48.958;8.294;2022-07-18T01:18:04;1.30;;;1.10;;
63438;SDS011;49567;48.958;8.294;2022-07-18T01:20:30;3.13;;;1.13;;
63438;SDS011;49567;48.958;8.294;2022-07-18T01:22:57;0.90;;;0.88;;
63438;SDS011;49567;48.958;8.294;2022-07-18T01:25:26;2.63;;;1.40;;
63438;SDS011;49567;48.958;8.294;2022-07-18T01:27:52;2.20;;;1.17;;
63438;SDS011;49567;48.958;8.294;2022-07-18T01:30:20;3.33;;;1.40;;
63438;SDS011;49567;48.958;8.294;2022-07-18T01:32:46;2.80;;;1.20;;
63438;SDS011;49567;48.958;8.294;2022-07-18T01:35:22;2.58;;;1.27;;
63438;SDS011;49567;48.958;8.294;2022-07-18T01:37:54;3.45;;;1.70;;
63438;SDS011;49567;48.958;8.294;2022-07-18T01:40:22;1.10;;;0.95;;
63438;SDS011;49567;48.958;8.294;2022-07-18T01:42:49;1.30;;;1.17;;
63438;SDS011;49567;48.958;8.294;2022-07-18T01:45:15;2.33;;;1.17;;
63438;SDS011;49567;48.958;8.294;2022-07-18T01:47:43;1.83;;;1.20;;
63438;SDS011;49567;48.958;8.294;2022-07-18T01:50:11;1.70;;;1.10;;
63438;SDS011;49567;48.958;8.294;2022-07-18T01:52:39;1.47;;;1.17;;
63438;SDS011;49567;48.958;8.294;2022-07-18T01:55:08;1.90;;;1.13;;
63438;SDS011;49567;48.958;8.294;2022-07-18T01:57:37;3.17;;;1.50;;
63438;SDS011;49567;48.958;8.294;2022-07-18T02:00:08;1.15;;;1.15;;
63438;SDS011;49567;48.958;8.294;2022-07-18T02:02:36;1.30;;;1.20;;
63438;SDS011;49567;48.958;8.294;2022-07-18T02:07:40;1.77;;;1.23;;
63438;SDS011;49567;48.958;8.294;2022-07-18T02:10:07;2.90;;;1.30;;
63438;SDS011;49567;48.958;8.294;2022-07-18T02:12:38;1.83;;;1.63;;
63438;SDS011;49567;48.958;8.294;2022-07-18T02:15:04;2.40;;;1.10;;
63438;SDS011;49567;48.958;8.294;2022-07-18T02:17:30;2.30;;;1.13;;
63438;SDS011;49567;48.958;8.294;2022-07-18T02:19:56;4.00;;;1.73;;
63438;SDS011;49567;48.958;8.294;2022-07-18T02:22:21;1.77;;;1.40;;
63438;SDS011;49567;48.958;8.294;2022-07-18T02:24:46;1.33;;;1.25;;
63438;SDS011;49567;48.958;8.294;2022-07-18T02:27:12;2.43;;;0.97;;
63438;SDS011;49567;48.958;8.294;2022-07-18T02:29:37;4.50;;;1.50;;
63438;SDS011;49567;48.958;8.294;2022-07-18T02:32:03;1.23;;;1.13;;
63438;SDS011;49567;48.958;8.294;2022-07-18T02:34:29;1.23;;;1.13;;
63438;SDS011;49567;48.958;8.294;2022-07-18T02:36:54;1.85;;;1.35;;
63438;SDS011;49567;48.958;8.294;2022-07-18T02:39:20;1.60;;;1.10;;
63438;SDS011;49567;48.958;8.294;2022-07-18T02:41:45;5.50;;;1.50;;
63438;SDS011;49567;48.958;8.294;2022-07-18T02:44:11;1.97;;;1.10;;
63438;SDS011;49567;48.958;8.294;2022-07-18T02:46:37;0.95;;;0.95;;
63438;SDS011;49567;48.958;8.294;2022-07-18T02:49:02;1.17;;;0.93;;
63438;SDS011;49567;48.958;8.294;2022-07-18T02:51:28;2.40;;;1.20;;
63438;SDS011;49567;48.958;8.294;2022-07-18T02:53:53;2.17;;;1.13;;
63438;SDS011;49567;48.958;8.294;2022-07-18T02:56:19;3.87;;;1.37;;
63438;SDS011;49567;48.958;8.294;2022-07-18T02:58:44;1.13;;;1.13;;
63438;SDS011;49567;48.958;8.294;2022-07-18T03:01:10;1.30;;;1.20;;
63438;SDS011;49567;48.958;8.294;2022-07-18T03:03:35;2.30;;;1.30;;
63438;SDS011;49567;48.958;8.294;2022-07-18T03:06:01;3.20;;;1.50;;
63438;SDS011;49567;48.958;8.294;2022-07-18T03:08:26;1.45;;;1.10;;
63438;SDS011;49567;48.958;8.294;2022-07-18T03:10:51;1.77;;;1.10;;
63438;SDS011;49567;48.958;8.294;2022-07-18T03:13:16;3.23;;;1.30;;
63438;SDS011;49567;48.958;8.294;2022-07-18T03:15:42;1.00;;;1.00;;
63438;SDS011;49567;48.958;8.294;2022-07-18T03:18:07;1.77;;;1.53;;
63438;SDS011;49567;48.958;8.294;2022-07-18T03:20:32;1.27;;;1.17;;
63438;SDS011;49567;48.958;8.294;2022-07-18T03:22:58;3.75;;;1.30;;
63438;SDS011;49567;48.958;8.294;2022-07-18T03:25:24;1.20;;;1.10;;
63438;SDS011;49567;48.958;8.294;2022-07-18T03:27:50;1.38;;;1.20;;
63438;SDS011;49567;48.958;8.294;2022-07-18T03:30:15;1.47;;;1.37;;
63438;SDS011;49567;48.958;8.294;2022-07-18T03:32:40;1.35;;;1.02;;
63438;SDS011;49567;48.958;8.294;2022-07-18T03:35:06;1.63;;;1.00;;
63438;SDS011;49567;48.958;8.294;2022-07-18T03:37:32;2.00;;;1.48;;
63438;SDS011;49567;48.958;8.294;2022-07-18T03:39:57;1.00;;;1.00;;
63438;SDS011;49567;48.958;8.294;2022-07-18T03:42:23;1.23;;;1.23;;
63438;SDS011;49567;48.958;8.294;2022-07-18T03:44:48;4.10;;;1.40;;
63438;SDS011;49567;48.958;8.294;2022-07-18T03:47:13;1.50;;;1.03;;
63438;SDS011;49567;48.958;8.294;2022-07-18T03:49:39;2.77;;;1.20;;
63438;SDS011;49567;48.958;8.294;2022-07-18T03:52:04;3.10;;;1.30;;
63438;SDS011;49567;48.958;8.294;2022-07-18T03:54:30;2.40;;;1.50;;
63438;SDS011;49567;48.958;8.294;2022-07-18T03:56:55;2.73;;;1.50;;
63438;SDS011;49567;48.958;8.294;2022-07-18T03:59:20;1.83;;;1.53;;
63438;SDS011;49567;48.958;8.294;2022-07-18T04:01:46;3.10;;;1.70;;
63438;SDS011;49567;48.958;8.294;2022-07-18T04:04:11;5.27;;;1.97;;
63438;SDS011;49567;48.958;8.294;2022-07-18T04:06:36;4.03;;;1.57;;
63438;SDS011;49567;48.958;8.294;2022-07-18T04:09:02;1.67;;;1.53;;
63438;SDS011;49567;48.958;8.294;2022-07-18T04:11:27;4.55;;;1.33;;
63438;SDS011;49567;48.958;8.294;2022-07-18T04:13:53;5.27;;;1.37;;
63438;SDS011;49567;48.958;8.294;2022-07-18T04:16:19;1.40;;;1.30;;
63438;SDS011;49567;48.958;8.294;2022-07-18T04:18:45;1.30;;;1.20;;
63438;SDS011;49567;48.958;8.294;2022-07-18T04:21:11;3.10;;;1.47;;
63438;SDS011;49567;48.958;8.294;2022-07-18T04:23:37;1.30;;;1.20;;
63438;SDS011;49567;48.958;8.294;2022-07-18T04:26:03;3.00;;;1.42;;
63438;SDS011;49567;48.958;8.294;2022-07-18T04:28:29;1.30;;;1.20;;
63438;SDS011;49567;48.958;8.294;2022-07-18T04:30:54;2.50;;;1.45;;
63438;SDS011;49567;48.958;8.294;2022-07-18T04:33:20;8.10;;;2.13;;
63438;SDS011;49567;48.958;8.294;2022-07-18T04:35:45;1.50;;;1.40;;
63438;SDS011;49567;48.958;8.294;2022-07-18T04:38:10;2.42;;;1.60;;
63438;SDS011;49567;48.958;8.294;2022-07-18T04:40:36;1.40;;;1.20;;
63438;SDS011;49567;48.958;8.294;2022-07-18T04:43:02;2.88;;;1.55;;
63438;SDS011;49567;48.958;8.294;2022-07-18T04:45:28;1.30;;;1.20;;
63438;SDS011;49567;48.958;8.294;2022-07-18T04:47:54;2.33;;;1.30;;
63438;SDS011;49567;48.958;8.294;2022-07-18T04:50:20;1.63;;;1.30;;
63438;SDS011;49567;48.958;8.294;2022-07-18T04:52:47;1.58;;;1.15;;
63438;SDS011;49567;48.958;8.294;2022-07-18T04:55:13;1.80;;;1.30;;
63438;SDS011;49567;48.958;8.294;2022-07-18T04:57:40;2.65;;;1.40;;
63438;SDS011;49567;48.958;8.294;2022-07-18T05:00:07;1.97;;;1.13;;
63438;SDS011;49567;48.958;8.294;2022-07-18T05:02:34;1.77;;;1.17;;
63438;SDS011;49567;48.958;8.294;2022-07-18T05:05:00;1.38;;;1.20;;
63438;SDS011;49567;48.958;8.294;2022-07-18T05:07:25;3.93;;;1.23;;
63438;SDS011;49567;48.958;8.294;2022-07-18T05:09:50;1.93;;;1.10;;
63438;SDS011;49567;48.958;8.294;2022-07-18T05:12:16;3.07;;;1.17;;
63438;SDS011;49567;48.958;8.294;2022-07-18T05:14:43;4.38;;;1.20;;
63438;SDS011;49567;48.958;8.294;2022-07-18T05:17:08;1.50;;;1.10;;
63438;SDS011;49567;48.958;8.294;2022-07-18T05:19:33;2.60;;;1.40;;
63438;SDS011;49567;48.958;8.294;2022-07-18T05:21:59;2.00;;;1.20;;
63438;SDS011;49567;48.958;8.294;2022-07-18T05:24:24;4.30;;;1.10;;
63438;SDS011;49567;48.958;8.294;2022-07-18T05:26:49;2.03;;;1.20;;
63438;SDS011;49567;48.958;8.294;2022-07-18T05:29:15;2.33;;;1.10;;
63438;SDS011;49567;48.958;8.294;2022-07-18T05:31:40;3.70;;;1.13;;
63438;SDS011;49567;48.958;8.294;2022-07-18T05:34:06;2.13;;;1.30;;
63438;SDS011;49567;48.958;8.294;2022-07-18T05:36:32;3.15;;;1.50;;
63438;SDS011;49567;48.958;8.294;2022-07-18T05:38:57;4.77;;;1.33;;
63438;SDS011;49567;48.958;8.294;2022-07-18T05:41:22;5.70;;;1.30;;
63438;SDS011;49567;48.958;8.294;2022-07-18T05:43:47;4.50;;;1.20;;
63438;SDS011;49567;48.958;8.294;2022-07-18T05:46:13;2.92;;;1.30;;
63438;SDS011;49567;48.958;8.294;2022-07-18T05:48:38;1.07;;;1.00;;
63438;SDS011;49567;48.958;8.294;2022-07-18T05:51:05;1.40;;;1.30;;
63438;SDS011;49567;48.958;8.294;2022-07-18T05:53:31;2.08;;;1.60;;
63438;SDS011;49567;48.958;8.294;2022-07-18T05:55:56;2.30;;;1.27;;
63438;SDS011;49567;48.958;8.294;2022-07-18T05:58:21;3.17;;;1.30;;
63438;SDS011;49567;48.958;8.294;2022-07-18T06:00:47;3.90;;;1.80;;
63438;SDS011;49567;48.958;8.294;2022-07-18T06:03:12;1.73;;;1.43;;
63438;SDS011;49567;48.958;8.294;2022-07-18T06:05:38;4.93;;;1.50;;
63438;SDS011;49567;48.958;8.294;2022-07-18T06:08:03;1.67;;;1.00;;
63438;SDS011;49567;48.958;8.294;2022-07-18T06:10:29;1.80;;;1.10;;
63438;SDS011;49567;48.958;8.294;2022-07-18T06:12:54;2.47;;;1.13;;
63438;SDS011;49567;48.958;8.294;2022-07-18T06:15:20;5.10;;;1.37;;
63438;SDS011;49567;48.958;8.294;2022-07-18T06:17:45;2.13;;;1.00;;
63438;SDS011;49567;48.958;8.294;2022-07-18T06:20:10;2.70;;;1.13;;
63438;SDS011;49567;48.958;8.294;2022-07-18T06:22:36;1.07;;;0.93;;
63438;SDS011;49567;48.958;8.294;2022-07-18T06:25:02;3.00;;;1.35;;
63438;SDS011;49567;48.958;8.294;2022-07-18T06:27:28;6.10;;;1.60;;
63438;SDS011;49567;48.958;8.294;2022-07-18T06:29:54;2.90;;;1.43;;
63438;SDS011;49567;48.958;8.294;2022-07-18T06:32:19;3.00;;;1.23;;
63438;SDS011;49567;48.958;8.294;2022-07-18T06:34:44;3.17;;;1.40;;
63438;SDS011;49567;48.958;8.294;2022-07-18T06:37:10;2.92;;;1.40;;
63438;SDS011;49567;48.958;8.294;2022-07-18T06:39:35;3.53;;;1.10;;
63438;SDS011;49567;48.958;8.294;2022-07-18T06:42:00;1.50;;;1.10;;
63438;SDS011;49567;48.958;8.294;2022-07-18T06:44:25;2.87;;;1.27;;
63438;SDS011;49567;48.958;8.294;2022-07-18T06:46:51;4.83;;;1.07;;
63438;SDS011;49567;48.958;8.294;2022-07-18T06:49:17;2.10;;;1.08;;
63438;SDS011;49567;48.958;8.294;2022-07-18T06:51:42;1.67;;;1.10;;
63438;SDS011;49567;48.958;8.294;2022-07-18T06:54:08;2.70;;;1.40;;
63438;SDS011;49567;48.958;8.294;2022-07-18T06:56:33;8.47;;;2.30;;
63438;SDS011;49567;48.958;8.294;2022-07-18T06:58:58;3.20;;;1.50;;
63438;SDS011;49567;48.958;8.294;2022-07-18T07:01:24;2.90;;;1.33;;
63438;SDS011;49567;48.958;8.294;2022-07-18T07:03:49;2.38;;;1.10;;
63438;SDS011;49567;48.958;8.294;2022-07-18T07:06:15;2.40;;;0.97;;
63438;SDS011;49567;48.958;8.294;2022-07-18T07:08:41;3.05;;;1.25;;
63438;SDS011;49567;48.958;8.294;2022-07-18T07:11:06;2.33;;;1.30;;
63438;SDS011;49567;48.958;8.294;2022-07-18T07:13:32;3.58;;;1.10;;
63438;SDS011;49567;48.958;8.294;2022-07-18T07:15:57;1.63;;;1.27;;
63438;SDS011;49567;48.958;8.294;2022-07-18T07:18:23;2.53;;;0.97;;
63438;SDS011;49567;48.958;8.294;2022-07-18T07:20:48;3.58;;;1.38;;
63438;SDS011;49567;48.958;8.294;2022-07-18T07:23:13;2.37;;;1.00;;
63438;SDS011;49567;48.958;8.294;2022-07-18T07:25:39;2.27;;;1.20;;
63438;SDS011;49567;48.958;8.294;2022-07-18T07:28:04;4.20;;;1.10;;
63438;SDS011;49567;48.958;8.294;2022-07-18T07:30:31;1.90;;;1.10;;
63438;SDS011;49567;48.958;8.294;2022-07-18T07:32:58;3.70;;;1.20;;
63438;SDS011;49567;48.958;8.294;2022-07-18T07:35:23;3.35;;;0.90;;
63438;SDS011;49567;48.958;8.294;2022-07-18T07:37:50;4.60;;;1.23;;
63438;SDS011;49567;48.958;8.294;2022-07-18T07:40:21;0.93;;;0.93;;
63438;SDS011;49567;48.958;8.294;2022-07-18T07:42:47;1.42;;;0.93;;
63438;SDS011;49567;48.958;8.294;2022-07-18T07:45:13;1.02;;;0.93;;
63438;SDS011;49567;48.958;8.294;2022-07-18T07:47:38;3.10;;;1.20;;
63438;SDS011;49567;48.958;8.294;2022-07-18T07:50:05;2.35;;;0.85;;
63438;SDS011;49567;48.958;8.294;2022-07-18T07:52:31;5.15;;;1.10;;
63438;SDS011;49567;48.958;8.294;2022-07-18T07:54:57;1.83;;;1.27;;
63438;SDS011;49567;48.958;8.294;2022-07-18T07:57:22;3.20;;;1.13;;
63438;SDS011;49567;48.958;8.294;2022-07-18T07:59:48;2.00;;;0.80;;
63438;SDS011;49567;48.958;8.294;2022-07-18T08:02:13;2.13;;;1.30;;
63438;SDS011;49567;48.958;8.294;2022-07-18T08:04:39;4.20;;;1.40;;
63438;SDS011;49567;48.958;8.294;2022-07-18T08:07:05;1.30;;;0.90;;
63438;SDS011;49567;48.958;8.294;2022-07-18T08:09:30;2.00;;;0.93;;
63438;SDS011;49567;48.958;8.294;2022-07-18T08:11:55;1.45;;;1.00;;
63438;SDS011;49567;48.958;8.294;2022-07-18T08:14:21;1.30;;;1.07;;
63438;SDS011;49567;48.958;8.294;2022-07-18T08:16:46;2.70;;;1.03;;
63438;SDS011;49567;48.958;8.294;2022-07-18T08:19:11;2.23;;;0.87;;
63438;SDS011;49567;48.958;8.294;2022-07-18T08:21:37;3.33;;;0.87;;
63438;SDS011;49567;48.958;8.294;2022-07-18T08:24:02;2.00;;;1.40;;
63438;SDS011;49567;48.958;8.294;2022-07-18T08:26:28;4.05;;;1.25;;
63438;SDS011;49567;48.958;8.294;2022-07-18T08:28:53;1.90;;;0.90;;
63438;SDS011;49567;48.958;8.294;2022-07-18T08:31:18;2.03;;;0.80;;
63438;SDS011;49567;48.958;8.294;2022-07-18T08:33:44;1.70;;;1.10;;
63438;SDS011;49567;48.958;8.294;2022-07-18T08:36:10;3.10;;;1.00;;
63438;SDS011;49567;48.958;8.294;2022-07-18T08:38:35;2.72;;;1.05;;
63438;SDS011;49567;48.958;8.294;2022-07-18T08:41:01;1.75;;;1.08;;
63438;SDS011;49567;48.958;8.294;2022-07-18T08:43:26;3.90;;;1.60;;
63438;SDS011;49567;48.958;8.294;2022-07-18T08:45:55;2.53;;;0.80;;
63438;SDS011;49567;48.958;8.294;2022-07-18T08:48:22;1.85;;;1.00;;
63438;SDS011;49567;48.958;8.294;2022-07-18T08:50:47;5.20;;;0.98;;
63438;SDS011;49567;48.958;8.294;2022-07-18T08:53:14;2.95;;;1.08;;
63438;SDS011;49567;48.958;8.294;2022-07-18T08:55:41;1.20;;;0.93;;
63438;SDS011;49567;48.958;8.294;2022-07-18T08:58:06;3.13;;;0.95;;
63438;SDS011;49567;48.958;8.294;2022-07-18T09:00:33;1.97;;;1.30;;
63438;SDS011;49567;48.958;8.294;2022-07-18T09:02:59;3.03;;;0.90;;
63438;SDS011;49567;48.958;8.294;2022-07-18T09:05:25;3.60;;;0.88;;
63438;SDS011;49567;48.958;8.294;2022-07-18T09:07:54;3.43;;;1.20;;
63438;SDS011;49567;48.958;8.294;2022-07-18T09:10:55;4.00;;;1.20;;
63438;SDS011;49567;48.958;8.294;2022-07-18T09:13:23;3.50;;;2.37;;
63438;SDS011;49567;48.958;8.294;2022-07-18T09:18:32;1.38;;;1.25;;
63438;SDS011;49567;48.958;8.294;2022-07-18T09:21:06;1.00;;;0.90;;
63438;SDS011;49567;48.958;8.294;2022-07-18T09:23:46;3.40;;;0.82;;
63438;SDS011;49567;48.958;8.294;2022-07-18T09:26:17;1.43;;;0.80;;
63438;SDS011;49567;48.958;8.294;2022-07-18T09:29:01;1.25;;;1.15;;
63438;SDS011;49567;48.958;8.294;2022-07-18T09:31:28;4.78;;;0.90;;
63438;SDS011;49567;48.958;8.294;2022-07-18T09:36:25;0.88;;;0.88;;
63438;SDS011;49567;48.958;8.294;2022-07-18T09:38:51;2.80;;;0.77;;
63438;SDS011;49567;48.958;8.294;2022-07-18T09:41:28;1.15;;;0.90;;
63438;SDS011;49567;48.958;8.294;2022-07-18T09:43:57;1.13;;;0.80;;
63438;SDS011;49567;48.958;8.294;2022-07-18T09:46:23;2.13;;;0.88;;
63438;SDS011;49567;48.958;8.294;2022-07-18T09:48:50;1.70;;;0.80;;
63438;SDS011;49567;48.958;8.294;2022-07-18T09:51:33;2.20;;;0.93;;
63438;SDS011;49567;48.958;8.294;2022-07-18T09:53:58;2.47;;;0.80;;
63438;SDS011;49567;48.958;8.294;2022-07-18T09:56:26;1.50;;;0.87;;
63438;SDS011;49567;48.958;8.294;2022-07-18T09:58:53;1.40;;;0.70;;
63438;SDS011;49567;48.958;8.294;2022-07-18T10:01:22;3.88;;;1.00;;
63438;SDS011;49567;48.958;8.294;2022-07-18T10:03:48;1.95;;;0.80;;
63438;SDS011;49567;48.958;8.294;2022-07-18T10:06:15;5.15;;;1.13;;
63438;SDS011;49567;48.958;8.294;2022-07-18T10:08:41;1.13;;;1.02;;
63438;SDS011;49567;48.958;8.294;2022-07-18T10:11:07;3.17;;;0.80;;
63438;SDS011;49567;48.958;8.294;2022-07-18T10:13:33;1.40;;;0.80;;
63438;SDS011;49567;48.958;8.294;2022-07-18T10:16:00;2.65;;;1.08;;
63438;SDS011;49567;48.958;8.294;2022-07-18T10:18:27;1.80;;;0.90;;
63438;SDS011;49567;48.958;8.294;2022-07-18T10:20:56;2.60;;;1.13;;
63438;SDS011;49567;48.958;8.294;2022-07-18T10:23:31;3.97;;;0.80;;
63438;SDS011;49567;48.958;8.294;2022-07-18T10:31:28;2.40;;;0.95;;
63438;SDS011;49567;48.958;8.294;2022-07-18T10:36:33;1.30;;;0.80;;
63438;SDS011;49567;48.958;8.294;2022-07-18T10:39:10;2.83;;;1.17;;
63438;SDS011;49567;48.958;8.294;2022-07-18T10:57:31;1.10;;;1.02;;
63438;SDS011;49567;48.958;8.294;2022-07-18T11:00:12;0.98;;;0.90;;
63438;SDS011;49567;48.958;8.294;2022-07-18T11:02:46;0.88;;;0.80;;
63438;SDS011;49567;48.958;8.294;2022-07-18T11:15:59;2.90;;;0.90;;
63438;SDS011;49567;48.958;8.294;2022-07-18T11:18:27;2.15;;;0.90;;
63438;SDS011;49567;48.958;8.294;2022-07-18T11:20:52;2.95;;;1.00;;
63438;SDS011;49567;48.958;8.294;2022-07-18T11:23:19;1.50;;;0.73;;
63438;SDS011;49567;48.958;8.294;2022-07-18T11:25:47;2.53;;;0.90;;
63438;SDS011;49567;48.958;8.294;2022-07-18T11:28:14;2.10;;;0.80;;
63438;SDS011;49567;48.958;8.294;2022-07-18T11:30:40;3.47;;;0.90;;
63438;SDS011;49567;48.958;8.294;2022-07-18T11:33:19;3.50;;;0.90;;
63438;SDS011;49567;48.958;8.294;2022-07-18T11:35:49;2.10;;;1.17;;
63438;SDS011;49567;48.958;8.294;2022-07-18T11:38:15;3.20;;;0.93;;
63438;SDS011;49567;48.958;8.294;2022-07-18T11:40:50;1.57;;;0.87;;
63438;SDS011;49567;48.958;8.294;2022-07-18T11:43:23;3.30;;;0.70;;
63438;SDS011;49567;48.958;8.294;2022-07-18T11:48:28;1.00;;;0.73;;
63438;SDS011;49567;48.958;8.294;2022-07-18T11:50:53;4.07;;;0.93;;
63438;SDS011;49567;48.958;8.294;2022-07-18T11:53:19;3.00;;;1.10;;
63438;SDS011;49567;48.958;8.294;2022-07-18T11:55:44;2.50;;;0.80;;
63438;SDS011;49567;48.958;8.294;2022-07-18T11:58:11;1.92;;;1.00;;
63438;SDS011;49567;48.958;8.294;2022-07-18T12:00:38;2.97;;;1.00;;
63438;SDS011;49567;48.958;8.294;2022-07-18T12:03:08;0.88;;;0.80;;
63438;SDS011;49567;48.958;8.294;2022-07-18T12:05:38;1.80;;;0.77;;
63438;SDS011;49567;48.958;8.294;2022-07-18T12:08:24;0.95;;;0.95;;
63438;SDS011;49567;48.958;8.294;2022-07-18T12:11:05;2.13;;;0.80;;
63438;SDS011;49567;48.958;8.294;2022-07-18T12:13:45;2.67;;;0.70;;
63438;SDS011;49567;48.958;8.294;2022-07-18T12:19:09;2.80;;;0.90;;
63438;SDS011;49567;48.958;8.294;2022-07-18T12:35:10;1.65;;;0.70;;
63438;SDS011;49567;48.958;8.294;2022-07-18T12:40:22;3.50;;;0.73;;
63438;SDS011;49567;48.958;8.294;2022-07-18T12:42:48;1.00;;;0.90;;
63438;SDS011;49567;48.958;8.294;2022-07-18T12:45:13;4.18;;;0.98;;
63438;SDS011;49567;48.958;8.294;2022-07-18T12:47:40;1.00;;;1.00;;
63438;SDS011;49567;48.958;8.294;2022-07-18T12:50:06;1.13;;;0.87;;
63438;SDS011;49567;48.958;8.294;2022-07-18T12:52:32;0.70;;;0.70;;
63438;SDS011;49567;48.958;8.294;2022-07-18T12:54:58;1.70;;;0.73;;
63438;SDS011;49567;48.958;8.294;2022-07-18T12:57:24;1.90;;;0.70;;
63438;SDS011;49567;48.958;8.294;2022-07-18T12:59:50;0.63;;;0.60;;
63438;SDS011;49567;48.958;8.294;2022-07-18T13:02:15;1.10;;;0.67;;
63438;SDS011;49567;48.958;8.294;2022-07-18T13:04:41;0.60;;;0.60;;
63438;SDS011;49567;48.958;8.294;2022-07-18T13:07:07;0.63;;;0.63;;
63438;SDS011;49567;48.958;8.294;2022-07-18T13:09:32;2.78;;;0.70;;
63438;SDS011;49567;48.958;8.294;2022-07-18T13:11:58;4.40;;;0.60;;
63438;SDS011;49567;48.958;8.294;2022-07-18T13:14:24;0.50;;;0.50;;
63438;SDS011;49567;48.958;8.294;2022-07-18T13:16:50;3.47;;;0.82;;
63438;SDS011;49567;48.958;8.294;2022-07-18T13:19:17;1.80;;;0.73;;
63438;SDS011;49567;48.958;8.294;2022-07-18T13:21:43;1.50;;;0.80;;
63438;SDS011;49567;48.958;8.294;2022-07-18T13:24:10;2.25;;;0.80;;
63438;SDS011;49567;48.958;8.294;2022-07-18T13:26:36;1.30;;;0.90;;
63438;SDS011;49567;48.958;8.294;2022-07-18T13:29:02;3.03;;;0.67;;
63438;SDS011;49567;48.958;8.294;2022-07-18T13:31:28;1.20;;;0.60;;
63438;SDS011;49567;48.958;8.294;2022-07-18T13:33:53;1.40;;;0.67;;
63438;SDS011;49567;48.958;8.294;2022-07-18T13:36:18;0.80;;;0.70;;
63438;SDS011;49567;48.958;8.294;2022-07-18T13:38:44;1.70;;;0.90;;
63438;SDS011;49567;48.958;8.294;2022-07-18T13:41:10;0.68;;;0.60;;
63438;SDS011;49567;48.958;8.294;2022-07-18T13:43:36;1.33;;;0.60;;
63438;SDS011;49567;48.958;8.294;2022-07-18T13:46:07;0.65;;;0.60;;
63438;SDS011;49567;48.958;8.294;2022-07-18T13:48:37;0.77;;;0.77;;
63438;SDS011;49567;48.958;8.294;2022-07-18T13:51:03;0.70;;;0.67;;
63438;SDS011;49567;48.958;8.294;2022-07-18T13:53:30;0.70;;;0.70;;
63438;SDS011;49567;48.958;8.294;2022-07-18T13:55:55;1.20;;;0.63;;
63438;SDS011;49567;48.958;8.294;2022-07-18T13:58:20;0.73;;;0.73;;
63438;SDS011;49567;48.958;8.294;2022-07-18T14:00:46;1.30;;;0.70;;
63438;SDS011;49567;48.958;8.294;2022-07-18T14:03:12;1.90;;;0.63;;
63438;SDS011;49567;48.958;8.294;2022-07-18T14:05:37;0.73;;;0.73;;
63438;SDS011;49567;48.958;8.294;2022-07-18T14:08:03;1.00;;;0.85;;
63438;SDS011;49567;48.958;8.294;2022-07-18T14:10:29;0.50;;;0.50;;
63438;SDS011;49567;48.958;8.294;2022-07-18T14:12:55;1.13;;;0.52;;
63438;SDS011;49567;48.958;8.294;2022-07-18T14:15:21;1.23;;;0.70;;
63438;SDS011;49567;48.958;8.294;2022-07-18T14:17:46;0.60;;;0.60;;
63438;SDS011;49567;48.958;8.294;2022-07-18T14:20:11;1.33;;;0.43;;
63438;SDS011;49567;48.958;8.294;2022-07-18T14:22:38;1.70;;;1.00;;
63438;SDS011;49567;48.958;8.294;2022-07-18T14:25:05;1.67;;;0.60;;
63438;SDS011;49567;48.958;8.294;2022-07-18T14:27:32;2.20;;;0.57;;
63438;SDS011;49567;48.958;8.294;2022-07-18T14:29:58;2.10;;;0.80;;
63438;SDS011;49567;48.958;8.294;2022-07-18T14:32:24;1.90;;;0.80;;
63438;SDS011;49567;48.958;8.294;2022-07-18T14:34:50;2.90;;;0.70;;
63438;SDS011;49567;48.958;8.294;2022-07-18T14:37:16;0.77;;;0.77;;
63438;SDS011;49567;48.958;8.294;2022-07-18T14:39:41;4.60;;;0.97;;
63438;SDS011;49567;48.958;8.294;2022-07-18T14:42:06;1.47;;;0.80;;
63438;SDS011;49567;48.958;8.294;2022-07-18T14:44:32;1.30;;;0.60;;
63438;SDS011;49567;48.958;8.294;2022-07-18T14:46:57;3.20;;;0.90;;
63438;SDS011;49567;48.958;8.294;2022-07-18T14:49:22;1.38;;;0.70;;
63438;SDS011;49567;48.958;8.294;2022-07-18T14:51:48;0.90;;;0.70;;
63438;SDS011;49567;48.958;8.294;2022-07-18T14:54:13;2.30;;;0.60;;
63438;SDS011;49567;48.958;8.294;2022-07-18T14:56:39;0.50;;;0.50;;
63438;SDS011;49567;48.958;8.294;2022-07-18T14:59:04;1.90;;;0.90;;
63438;SDS011;49567;48.958;8.294;2022-07-18T15:01:29;1.17;;;0.90;;
63438;SDS011;49567;48.958;8.294;2022-07-18T15:03:56;0.70;;;0.70;;
63438;SDS011;49567;48.958;8.294;2022-07-18T15:06:22;0.60;;;0.60;;
63438;SDS011;49567;48.958;8.294;2022-07-18T15:08:50;0.80;;;0.80;;
63438;SDS011;49567;48.958;8.294;2022-07-18T15:11:15;0.65;;;0.63;;
63438;SDS011;49567;48.958;8.294;2022-07-18T15:13:43;0.77;;;0.70;;
63438;SDS011;49567;48.958;8.294;2022-07-18T15:16:12;1.08;;;0.60;;
63438;SDS011;49567;48.958;8.294;2022-07-18T15:18:38;1.05;;;0.80;;
63438;SDS011;49567;48.958;8.294;2022-07-18T15:21:03;2.23;;;0.93;;
63438;SDS011;49567;48.958;8.294;2022-07-18T15:23:29;4.53;;;0.90;;
63438;SDS011;49567;48.958;8.294;2022-07-18T15:25:54;0.80;;;0.80;;
63438;SDS011;49567;48.958;8.294;2022-07-18T15:28:19;0.97;;;0.80;;
63438;SDS011;49567;48.958;8.294;2022-07-18T15:30:47;1.30;;;0.60;;
63438;SDS011;49567;48.958;8.294;2022-07-18T15:33:13;2.40;;;0.80;;
63438;SDS011;49567;48.958;8.294;2022-07-18T15:35:39;0.60;;;0.60;;
63438;SDS011;49567;48.958;8.294;2022-07-18T15:38:04;2.13;;;0.80;;
63438;SDS011;49567;48.958;8.294;2022-07-18T15:40:30;0.70;;;0.70;;
63438;SDS011;49567;48.958;8.294;2022-07-18T15:42:55;1.00;;;0.70;;
63438;SDS011;49567;48.958;8.294;2022-07-18T15:45:20;0.67;;;0.67;;
63438;SDS011;49567;48.958;8.294;2022-07-18T15:47:46;2.20;;;0.70;;
63438;SDS011;49567;48.958;8.294;2022-07-18T15:50:11;1.00;;;1.00;;